sensor_id;sensor_type;location;lat;lon;timestamp;P1;durP1;ratioP1;P2;durP2;ratioP2
13171;SDS011;6651;53.200;10.432;2023-11-19T00:02:20;7.35;;;5.85;;
13171;SDS011;6651;53.200;10.432;2023-11-19T00:04:46;7.03;;;5.80;;
13171;SDS011;6651;53.200;10.432;2023-11-19T00:07:13;6.18;;;5.10;;
13171;SDS011;6651;53.200;10.432;2023-11-19T00:09:39;5.88;;;5.20;;
13171;SDS011;6651;53.200;10.432;2023-11-19T00:12:06;6.05;;;5.03;;
13171;SDS011;6651;53.200;10.432;2023-11-19T00:14:32;6.85;;;5.38;;
13171;SDS011;6651;53.200;10.432;2023-11-19T00:16:59;5.22;;;4.35;;
13171;SDS011;6651;53.200;10.432;2023-11-19T00:19:25;5.82;;;4.80;;
13171;SDS011;6651;53.200;10.432;2023-11-19T00:21:51;7.65;;;5.30;;
13171;SDS011;6651;53.200;10.432;2023-11-19T00:24:17;5.68;;;4.40;;
13171;SDS011;6651;53.200;10.432;2023-11-19T00:26:45;6.72;;;4.22;;
13171;SDS011;6651;53.200;10.432;2023-11-19T00:29:11;5.15;;;4.45;;
13171;SDS011;6651;53.200;10.432;2023-11-19T00:31:38;5.90;;;4.70;;
13171;SDS011;6651;53.200;10.432;2023-11-19T00:34:04;4.63;;;3.88;;
13171;SDS011;6651;53.200;10.432;2023-11-19T00:36:31;5.78;;;4.63;;
13171;SDS011;6651;53.200;10.432;2023-11-19T00:38:57;5.03;;;4.07;;
13171;SDS011;6651;53.200;10.432;2023-11-19T00:41:23;6.28;;;4.30;;
13171;SDS011;6651;53.200;10.432;2023-11-19T00:43:50;5.18;;;3.88;;
13171;SDS011;6651;53.200;10.432;2023-11-19T00:46:16;5.05;;;4.15;;
13171;SDS011;6651;53.200;10.432;2023-11-19T00:48:42;4.85;;;3.92;;
13171;SDS011;6651;53.200;10.432;2023-11-19T00:51:08;5.28;;;4.07;;
13171;SDS011;6651;53.200;10.432;2023-11-19T00:53:34;5.00;;;4.40;;
13171;SDS011;6651;53.200;10.432;2023-11-19T00:56:00;5.10;;;4.15;;
13171;SDS011;6651;53.200;10.432;2023-11-19T00:58:26;4.90;;;4.10;;
13171;SDS011;6651;53.200;10.432;2023-11-19T01:00:52;5.38;;;4.20;;
13171;SDS011;6651;53.200;10.432;2023-11-19T01:03:18;5.68;;;4.25;;
13171;SDS011;6651;53.200;10.432;2023-11-19T01:05:44;5.60;;;3.83;;
13171;SDS011;6651;53.200;10.432;2023-11-19T01:08:12;5.07;;;4.30;;
13171;SDS011;6651;53.200;10.432;2023-11-19T01:10:38;4.80;;;4.30;;
13171;SDS011;6651;53.200;10.432;2023-11-19T01:13:04;5.70;;;4.32;;
13171;SDS011;6651;53.200;10.432;2023-11-19T01:15:32;5.32;;;4.20;;
13171;SDS011;6651;53.200;10.432;2023-11-19T01:17:58;4.43;;;3.78;;
13171;SDS011;6651;53.200;10.432;2023-11-19T01:20:25;4.32;;;3.65;;
13171;SDS011;6651;53.200;10.432;2023-11-19T01:22:51;4.65;;;4.00;;
13171;SDS011;6651;53.200;10.432;2023-11-19T01:25:17;5.22;;;4.30;;
13171;SDS011;6651;53.200;10.432;2023-11-19T01:27:43;5.03;;;4.07;;
13171;SDS011;6651;53.200;10.432;2023-11-19T01:30:10;4.57;;;3.83;;
13171;SDS011;6651;53.200;10.432;2023-11-19T01:32:38;5.10;;;4.07;;
13171;SDS011;6651;53.200;10.432;2023-11-19T01:35:04;4.60;;;4.00;;
13171;SDS011;6651;53.200;10.432;2023-11-19T01:37:30;5.47;;;4.20;;
13171;SDS011;6651;53.200;10.432;2023-11-19T01:39:57;5.25;;;4.40;;
13171;SDS011;6651;53.200;10.432;2023-11-19T01:42:23;5.63;;;4.35;;
13171;SDS011;6651;53.200;10.432;2023-11-19T01:44:57;5.88;;;4.97;;
13171;SDS011;6651;53.200;10.432;2023-11-19T01:47:24;6.25;;;5.00;;
13171;SDS011;6651;53.200;10.432;2023-11-19T01:49:52;5.90;;;5.03;;
13171;SDS011;6651;53.200;10.432;2023-11-19T01:52:18;6.78;;;5.50;;
13171;SDS011;6651;53.200;10.432;2023-11-19T01:54:45;7.25;;;5.72;;
13171;SDS011;6651;53.200;10.432;2023-11-19T01:57:12;7.90;;;6.18;;
13171;SDS011;6651;53.200;10.432;2023-11-19T01:59:38;7.70;;;6.22;;
13171;SDS011;6651;53.200;10.432;2023-11-19T02:02:05;6.68;;;5.93;;
13171;SDS011;6651;53.200;10.432;2023-11-19T02:04:31;6.80;;;6.00;;
13171;SDS011;6651;53.200;10.432;2023-11-19T02:06:57;7.97;;;6.15;;
13171;SDS011;6651;53.200;10.432;2023-11-19T02:09:24;6.82;;;5.35;;
13171;SDS011;6651;53.200;10.432;2023-11-19T02:11:50;7.15;;;6.13;;
13171;SDS011;6651;53.200;10.432;2023-11-19T02:14:17;7.80;;;6.05;;
13171;SDS011;6651;53.200;10.432;2023-11-19T02:16:43;7.53;;;6.50;;
13171;SDS011;6651;53.200;10.432;2023-11-19T02:19:09;7.88;;;6.00;;
13171;SDS011;6651;53.200;10.432;2023-11-19T02:21:36;7.55;;;5.72;;
13171;SDS011;6651;53.200;10.432;2023-11-19T02:24:03;7.18;;;5.97;;
13171;SDS011;6651;53.200;10.432;2023-11-19T02:27:09;6.78;;;5.95;;
13171;SDS011;6651;53.200;10.432;2023-11-19T02:29:27;7.40;;;5.18;;
13171;SDS011;6651;53.200;10.432;2023-11-19T02:31:53;6.20;;;5.10;;
13171;SDS011;6651;53.200;10.432;2023-11-19T02:34:20;6.22;;;5.22;;
13171;SDS011;6651;53.200;10.432;2023-11-19T02:36:47;6.85;;;5.70;;
13171;SDS011;6651;53.200;10.432;2023-11-19T02:39:13;7.10;;;6.15;;
13171;SDS011;6651;53.200;10.432;2023-11-19T02:41:39;6.88;;;6.18;;
13171;SDS011;6651;53.200;10.432;2023-11-19T02:44:06;8.75;;;6.53;;
13171;SDS011;6651;53.200;10.432;2023-11-19T02:46:32;6.57;;;5.15;;
13171;SDS011;6651;53.200;10.432;2023-11-19T02:48:58;6.22;;;5.47;;
13171;SDS011;6651;53.200;10.432;2023-11-19T02:51:24;5.43;;;4.63;;
13171;SDS011;6651;53.200;10.432;2023-11-19T02:53:52;5.07;;;4.10;;
13171;SDS011;6651;53.200;10.432;2023-11-19T02:56:18;5.55;;;4.60;;
13171;SDS011;6651;53.200;10.432;2023-11-19T02:58:50;5.22;;;4.47;;
13171;SDS011;6651;53.200;10.432;2023-11-19T03:01:25;5.22;;;4.60;;
13171;SDS011;6651;53.200;10.432;2023-11-19T03:03:55;4.07;;;3.67;;
13171;SDS011;6651;53.200;10.432;2023-11-19T03:06:22;3.63;;;3.28;;
13171;SDS011;6651;53.200;10.432;2023-11-19T03:08:48;3.10;;;2.80;;
13171;SDS011;6651;53.200;10.432;2023-11-19T03:11:14;2.80;;;2.60;;
13171;SDS011;6651;53.200;10.432;2023-11-19T03:13:40;2.80;;;2.60;;
13171;SDS011;6651;53.200;10.432;2023-11-19T03:16:07;2.25;;;2.08;;
13171;SDS011;6651;53.200;10.432;2023-11-19T03:18:33;2.83;;;2.40;;
13171;SDS011;6651;53.200;10.432;2023-11-19T03:20:59;2.30;;;2.10;;
13171;SDS011;6651;53.200;10.432;2023-11-19T03:23:25;2.58;;;2.28;;
13171;SDS011;6651;53.200;10.432;2023-11-19T03:25:54;2.13;;;1.90;;
13171;SDS011;6651;53.200;10.432;2023-11-19T03:28:22;2.20;;;2.10;;
13171;SDS011;6651;53.200;10.432;2023-11-19T03:30:47;2.00;;;1.90;;
13171;SDS011;6651;53.200;10.432;2023-11-19T03:33:14;1.92;;;1.75;;
13171;SDS011;6651;53.200;10.432;2023-11-19T03:35:39;1.90;;;1.80;;
13171;SDS011;6651;53.200;10.432;2023-11-19T03:38:06;1.92;;;1.83;;
13171;SDS011;6651;53.200;10.432;2023-11-19T03:40:32;1.90;;;1.80;;
13171;SDS011;6651;53.200;10.432;2023-11-19T03:42:58;2.67;;;2.00;;
13171;SDS011;6651;53.200;10.432;2023-11-19T03:45:24;1.90;;;1.80;;
13171;SDS011;6651;53.200;10.432;2023-11-19T03:47:50;1.60;;;1.50;;
13171;SDS011;6651;53.200;10.432;2023-11-19T03:50:16;1.38;;;1.38;;
13171;SDS011;6651;53.200;10.432;2023-11-19T03:52:45;1.70;;;1.60;;
13171;SDS011;6651;53.200;10.432;2023-11-19T03:55:11;2.13;;;1.95;;
13171;SDS011;6651;53.200;10.432;2023-11-19T03:57:37;1.80;;;1.70;;
13171;SDS011;6651;53.200;10.432;2023-11-19T04:00:03;1.77;;;1.67;;
13171;SDS011;6651;53.200;10.432;2023-11-19T04:02:38;1.90;;;1.80;;
13171;SDS011;6651;53.200;10.432;2023-11-19T04:05:04;1.90;;;1.80;;
13171;SDS011;6651;53.200;10.432;2023-11-19T04:07:31;1.90;;;1.80;;
13171;SDS011;6651;53.200;10.432;2023-11-19T04:09:58;1.90;;;1.80;;
13171;SDS011;6651;53.200;10.432;2023-11-19T04:12:24;1.95;;;1.80;;
13171;SDS011;6651;53.200;10.432;2023-11-19T04:14:50;1.95;;;1.85;;
13171;SDS011;6651;53.200;10.432;2023-11-19T04:17:16;2.17;;;2.00;;
13171;SDS011;6651;53.200;10.432;2023-11-19T04:19:42;2.30;;;2.10;;
13171;SDS011;6651;53.200;10.432;2023-11-19T04:22:08;3.15;;;2.10;;
13171;SDS011;6651;53.200;10.432;2023-11-19T04:24:34;3.80;;;2.42;;
13171;SDS011;6651;53.200;10.432;2023-11-19T04:27:00;2.60;;;2.40;;
13171;SDS011;6651;53.200;10.432;2023-11-19T04:29:26;4.25;;;2.80;;
13171;SDS011;6651;53.200;10.432;2023-11-19T04:31:52;3.20;;;2.90;;
13171;SDS011;6651;53.200;10.432;2023-11-19T04:34:19;3.25;;;2.95;;
13171;SDS011;6651;53.200;10.432;2023-11-19T04:36:45;3.30;;;3.03;;
13171;SDS011;6651;53.200;10.432;2023-11-19T04:39:11;4.40;;;3.33;;
13171;SDS011;6651;53.200;10.432;2023-11-19T04:44:19;4.85;;;4.20;;
13171;SDS011;6651;53.200;10.432;2023-11-19T04:46:46;4.47;;;4.05;;
13171;SDS011;6651;53.200;10.432;2023-11-19T04:49:12;5.20;;;4.70;;
13171;SDS011;6651;53.200;10.432;2023-11-19T04:51:43;5.00;;;4.50;;
13171;SDS011;6651;53.200;10.432;2023-11-19T04:54:09;5.20;;;4.70;;
13171;SDS011;6651;53.200;10.432;2023-11-19T04:56:36;6.88;;;4.70;;
13171;SDS011;6651;53.200;10.432;2023-11-19T04:59:05;7.30;;;5.28;;
13171;SDS011;6651;53.200;10.432;2023-11-19T05:01:34;5.80;;;5.00;;
13171;SDS011;6651;53.200;10.432;2023-11-19T05:04:00;6.85;;;5.95;;
13171;SDS011;6651;53.200;10.432;2023-11-19T05:06:27;7.80;;;5.55;;
13171;SDS011;6651;53.200;10.432;2023-11-19T05:08:54;6.00;;;5.40;;
13171;SDS011;6651;53.200;10.432;2023-11-19T05:11:20;6.97;;;6.25;;
13171;SDS011;6651;53.200;10.432;2023-11-19T05:13:46;6.55;;;5.78;;
13171;SDS011;6651;53.200;10.432;2023-11-19T05:16:12;7.90;;;6.10;;
13171;SDS011;6651;53.200;10.432;2023-11-19T05:18:42;7.18;;;6.22;;
13171;SDS011;6651;53.200;10.432;2023-11-19T05:21:08;7.90;;;6.63;;
13171;SDS011;6651;53.200;10.432;2023-11-19T05:23:34;8.27;;;7.47;;
13171;SDS011;6651;53.200;10.432;2023-11-19T05:26:03;10.55;;;7.88;;
13171;SDS011;6651;53.200;10.432;2023-11-19T05:28:29;9.15;;;8.25;;
13171;SDS011;6651;53.200;10.432;2023-11-19T05:30:55;10.13;;;7.82;;
13171;SDS011;6651;53.200;10.432;2023-11-19T05:33:21;9.80;;;8.80;;
13171;SDS011;6651;53.200;10.432;2023-11-19T05:35:48;10.05;;;8.88;;
13171;SDS011;6651;53.200;10.432;2023-11-19T05:38:13;10.40;;;8.95;;
13171;SDS011;6651;53.200;10.432;2023-11-19T05:40:40;10.85;;;9.40;;
13171;SDS011;6651;53.200;10.432;2023-11-19T05:43:07;13.73;;;10.30;;
13171;SDS011;6651;53.200;10.432;2023-11-19T05:45:33;11.57;;;10.23;;
13171;SDS011;6651;53.200;10.432;2023-11-19T05:47:59;12.50;;;10.85;;
13171;SDS011;6651;53.200;10.432;2023-11-19T05:50:25;12.13;;;10.85;;
13171;SDS011;6651;53.200;10.432;2023-11-19T05:52:51;18.25;;;12.25;;
13171;SDS011;6651;53.200;10.432;2023-11-19T05:55:18;16.67;;;12.13;;
13171;SDS011;6651;53.200;10.432;2023-11-19T05:57:44;18.33;;;12.80;;
13171;SDS011;6651;53.200;10.432;2023-11-19T06:00:10;16.20;;;12.30;;
13171;SDS011;6651;53.200;10.432;2023-11-19T06:02:38;15.05;;;12.50;;
13171;SDS011;6651;53.200;10.432;2023-11-19T06:05:04;16.83;;;12.55;;
13171;SDS011;6651;53.200;10.432;2023-11-19T06:07:31;17.50;;;12.38;;
13171;SDS011;6651;53.200;10.432;2023-11-19T06:09:58;17.83;;;13.07;;
13171;SDS011;6651;53.200;10.432;2023-11-19T06:12:24;16.30;;;12.95;;
13171;SDS011;6651;53.200;10.432;2023-11-19T06:14:52;17.77;;;13.57;;
13171;SDS011;6651;53.200;10.432;2023-11-19T06:17:18;15.45;;;13.23;;
13171;SDS011;6651;53.200;10.432;2023-11-19T06:19:44;17.27;;;13.95;;
13171;SDS011;6651;53.200;10.432;2023-11-19T06:22:10;15.30;;;13.13;;
13171;SDS011;6651;53.200;10.432;2023-11-19T06:24:36;16.30;;;12.95;;
13171;SDS011;6651;53.200;10.432;2023-11-19T06:27:02;17.65;;;13.45;;
13171;SDS011;6651;53.200;10.432;2023-11-19T06:29:29;15.68;;;12.93;;
13171;SDS011;6651;53.200;10.432;2023-11-19T06:31:55;15.10;;;12.35;;
13171;SDS011;6651;53.200;10.432;2023-11-19T06:34:21;19.42;;;13.13;;
13171;SDS011;6651;53.200;10.432;2023-11-19T06:36:48;21.15;;;13.85;;
13171;SDS011;6651;53.200;10.432;2023-11-19T06:39:14;18.42;;;13.93;;
13171;SDS011;6651;53.200;10.432;2023-11-19T06:41:44;20.20;;;13.13;;
13171;SDS011;6651;53.200;10.432;2023-11-19T06:44:10;23.05;;;13.65;;
13171;SDS011;6651;53.200;10.432;2023-11-19T06:46:36;21.98;;;14.30;;
13171;SDS011;6651;53.200;10.432;2023-11-19T06:49:02;19.73;;;14.20;;
13171;SDS011;6651;53.200;10.432;2023-11-19T06:51:28;23.45;;;14.35;;
13171;SDS011;6651;53.200;10.432;2023-11-19T06:53:54;20.73;;;13.70;;
13171;SDS011;6651;53.200;10.432;2023-11-19T06:56:21;30.25;;;14.45;;
13171;SDS011;6651;53.200;10.432;2023-11-19T06:58:47;20.88;;;13.95;;
13171;SDS011;6651;53.200;10.432;2023-11-19T07:01:14;30.02;;;15.35;;
13171;SDS011;6651;53.200;10.432;2023-11-19T07:03:40;26.52;;;15.88;;
13171;SDS011;6651;53.200;10.432;2023-11-19T07:06:06;33.67;;;16.10;;
13171;SDS011;6651;53.200;10.432;2023-11-19T07:08:33;29.23;;;16.05;;
13171;SDS011;6651;53.200;10.432;2023-11-19T07:10:59;35.22;;;16.70;;
13171;SDS011;6651;53.200;10.432;2023-11-19T07:13:25;32.08;;;17.08;;
13171;SDS011;6651;53.200;10.432;2023-11-19T07:15:53;33.75;;;16.33;;
13171;SDS011;6651;53.200;10.432;2023-11-19T07:18:19;35.08;;;16.40;;
13171;SDS011;6651;53.200;10.432;2023-11-19T07:20:46;31.13;;;16.58;;
13171;SDS011;6651;53.200;10.432;2023-11-19T07:23:12;28.98;;;15.55;;
13171;SDS011;6651;53.200;10.432;2023-11-19T07:25:41;29.63;;;14.93;;
13171;SDS011;6651;53.200;10.432;2023-11-19T07:28:08;26.75;;;14.07;;
13171;SDS011;6651;53.200;10.432;2023-11-19T07:30:35;32.70;;;14.50;;
13171;SDS011;6651;53.200;10.432;2023-11-19T07:33:01;35.42;;;13.75;;
13171;SDS011;6651;53.200;10.432;2023-11-19T07:35:29;26.95;;;13.52;;
13171;SDS011;6651;53.200;10.432;2023-11-19T07:37:58;29.63;;;13.27;;
13171;SDS011;6651;53.200;10.432;2023-11-19T07:40:24;30.98;;;12.85;;
13171;SDS011;6651;53.200;10.432;2023-11-19T07:42:50;25.75;;;11.88;;
13171;SDS011;6651;53.200;10.432;2023-11-19T07:45:16;28.15;;;12.00;;
13171;SDS011;6651;53.200;10.432;2023-11-19T07:47:43;26.50;;;11.68;;
13171;SDS011;6651;53.200;10.432;2023-11-19T07:50:12;26.05;;;11.23;;
13171;SDS011;6651;53.200;10.432;2023-11-19T07:52:39;25.65;;;10.85;;
13171;SDS011;6651;53.200;10.432;2023-11-19T07:55:05;26.77;;;10.00;;
13171;SDS011;6651;53.200;10.432;2023-11-19T07:57:31;28.70;;;9.65;;
13171;SDS011;6651;53.200;10.432;2023-11-19T07:59:57;21.17;;;8.75;;
13171;SDS011;6651;53.200;10.432;2023-11-19T08:02:23;28.23;;;9.20;;
13171;SDS011;6651;53.200;10.432;2023-11-19T08:04:50;23.13;;;8.20;;
13171;SDS011;6651;53.200;10.432;2023-11-19T08:07:17;19.65;;;7.78;;
13171;SDS011;6651;53.200;10.432;2023-11-19T08:09:43;17.25;;;6.75;;
13171;SDS011;6651;53.200;10.432;2023-11-19T08:12:09;18.35;;;6.05;;
13171;SDS011;6651;53.200;10.432;2023-11-19T08:14:35;22.45;;;6.88;;
13171;SDS011;6651;53.200;10.432;2023-11-19T08:17:02;22.25;;;6.70;;
13171;SDS011;6651;53.200;10.432;2023-11-19T08:19:28;25.58;;;6.60;;
13171;SDS011;6651;53.200;10.432;2023-11-19T08:21:57;25.98;;;7.80;;
13171;SDS011;6651;53.200;10.432;2023-11-19T08:24:23;23.67;;;7.05;;
13171;SDS011;6651;53.200;10.432;2023-11-19T08:26:49;23.35;;;7.18;;
13171;SDS011;6651;53.200;10.432;2023-11-19T08:29:15;23.63;;;6.75;;
13171;SDS011;6651;53.200;10.432;2023-11-19T08:31:41;27.48;;;7.30;;
13171;SDS011;6651;53.200;10.432;2023-11-19T08:34:08;27.30;;;7.60;;
13171;SDS011;6651;53.200;10.432;2023-11-19T08:36:34;28.25;;;7.22;;
13171;SDS011;6651;53.200;10.432;2023-11-19T08:39:00;24.75;;;7.30;;
13171;SDS011;6651;53.200;10.432;2023-11-19T08:41:26;20.50;;;6.45;;
13171;SDS011;6651;53.200;10.432;2023-11-19T08:43:52;21.35;;;7.07;;
13171;SDS011;6651;53.200;10.432;2023-11-19T08:46:18;26.30;;;7.20;;
13171;SDS011;6651;53.200;10.432;2023-11-19T08:48:44;24.42;;;7.40;;
13171;SDS011;6651;53.200;10.432;2023-11-19T08:51:11;21.50;;;6.68;;
13171;SDS011;6651;53.200;10.432;2023-11-19T08:53:37;22.58;;;6.90;;
13171;SDS011;6651;53.200;10.432;2023-11-19T08:56:03;28.23;;;7.70;;
13171;SDS011;6651;53.200;10.432;2023-11-19T08:58:30;27.48;;;7.60;;
13171;SDS011;6651;53.200;10.432;2023-11-19T09:00:56;25.20;;;6.95;;
13171;SDS011;6651;53.200;10.432;2023-11-19T09:03:23;30.83;;;7.40;;
13171;SDS011;6651;53.200;10.432;2023-11-19T09:05:51;20.42;;;6.25;;
13171;SDS011;6651;53.200;10.432;2023-11-19T09:08:17;25.52;;;6.20;;
13171;SDS011;6651;53.200;10.432;2023-11-19T09:10:43;22.17;;;5.93;;
13171;SDS011;6651;53.200;10.432;2023-11-19T09:13:09;25.08;;;6.68;;
13171;SDS011;6651;53.200;10.432;2023-11-19T09:15:35;25.10;;;6.38;;
13171;SDS011;6651;53.200;10.432;2023-11-19T09:18:01;24.10;;;6.55;;
13171;SDS011;6651;53.200;10.432;2023-11-19T09:20:27;23.92;;;6.45;;
13171;SDS011;6651;53.200;10.432;2023-11-19T09:22:57;26.48;;;6.97;;
13171;SDS011;6651;53.200;10.432;2023-11-19T09:25:23;21.20;;;6.30;;
13171;SDS011;6651;53.200;10.432;2023-11-19T09:27:49;24.50;;;7.13;;
13171;SDS011;6651;53.200;10.432;2023-11-19T09:30:15;20.48;;;6.18;;
13171;SDS011;6651;53.200;10.432;2023-11-19T09:32:41;24.08;;;7.50;;
13171;SDS011;6651;53.200;10.432;2023-11-19T09:35:07;25.33;;;7.55;;
13171;SDS011;6651;53.200;10.432;2023-11-19T09:37:33;25.98;;;7.15;;
13171;SDS011;6651;53.200;10.432;2023-11-19T09:39:59;24.83;;;6.22;;
13171;SDS011;6651;53.200;10.432;2023-11-19T09:42:25;24.65;;;6.72;;
13171;SDS011;6651;53.200;10.432;2023-11-19T09:44:51;22.65;;;6.35;;
13171;SDS011;6651;53.200;10.432;2023-11-19T09:47:19;25.08;;;6.43;;
13171;SDS011;6651;53.200;10.432;2023-11-19T09:49:46;24.08;;;6.50;;
13171;SDS011;6651;53.200;10.432;2023-11-19T09:52:12;22.50;;;6.30;;
13171;SDS011;6651;53.200;10.432;2023-11-19T09:54:38;20.83;;;6.00;;
13171;SDS011;6651;53.200;10.432;2023-11-19T09:57:05;19.85;;;5.82;;
13171;SDS011;6651;53.200;10.432;2023-11-19T09:59:34;29.10;;;6.47;;
13171;SDS011;6651;53.200;10.432;2023-11-19T10:02:00;26.58;;;6.32;;
13171;SDS011;6651;53.200;10.432;2023-11-19T10:04:29;22.52;;;6.00;;
13171;SDS011;6651;53.200;10.432;2023-11-19T10:06:56;17.17;;;5.38;;
13171;SDS011;6651;53.200;10.432;2023-11-19T10:09:22;26.15;;;6.40;;
13171;SDS011;6651;53.200;10.432;2023-11-19T10:11:48;25.98;;;6.85;;
13171;SDS011;6651;53.200;10.432;2023-11-19T10:14:15;22.52;;;6.13;;
13171;SDS011;6651;53.200;10.432;2023-11-19T10:16:41;23.20;;;5.85;;
13171;SDS011;6651;53.200;10.432;2023-11-19T10:19:07;24.17;;;6.15;;
13171;SDS011;6651;53.200;10.432;2023-11-19T10:21:34;27.30;;;6.57;;
13171;SDS011;6651;53.200;10.432;2023-11-19T10:24:00;21.65;;;5.80;;
13171;SDS011;6651;53.200;10.432;2023-11-19T10:26:27;20.30;;;6.35;;
13171;SDS011;6651;53.200;10.432;2023-11-19T10:28:53;22.13;;;5.70;;
13171;SDS011;6651;53.200;10.432;2023-11-19T10:31:21;22.25;;;6.22;;
13171;SDS011;6651;53.200;10.432;2023-11-19T10:33:50;19.98;;;5.97;;
13171;SDS011;6651;53.200;10.432;2023-11-19T10:36:16;25.63;;;6.30;;
13171;SDS011;6651;53.200;10.432;2023-11-19T10:38:52;23.73;;;5.75;;
13171;SDS011;6651;53.200;10.432;2023-11-19T10:41:31;26.65;;;6.80;;
13171;SDS011;6651;53.200;10.432;2023-11-19T10:43:57;24.05;;;7.00;;
13171;SDS011;6651;53.200;10.432;2023-11-19T10:46:23;22.83;;;6.53;;
13171;SDS011;6651;53.200;10.432;2023-11-19T10:49:02;20.90;;;6.22;;
13171;SDS011;6651;53.200;10.432;2023-11-19T10:51:27;21.38;;;6.03;;
13171;SDS011;6651;53.200;10.432;2023-11-19T10:53:54;25.67;;;6.55;;
13171;SDS011;6651;53.200;10.432;2023-11-19T10:56:23;22.05;;;5.85;;
13171;SDS011;6651;53.200;10.432;2023-11-19T10:58:51;21.50;;;5.63;;
13171;SDS011;6651;53.200;10.432;2023-11-19T11:01:20;23.75;;;5.75;;
13171;SDS011;6651;53.200;10.432;2023-11-19T11:03:46;24.38;;;6.90;;
13171;SDS011;6651;53.200;10.432;2023-11-19T11:06:12;22.58;;;5.95;;
13171;SDS011;6651;53.200;10.432;2023-11-19T11:08:39;24.10;;;6.15;;
13171;SDS011;6651;53.200;10.432;2023-11-19T11:11:05;21.27;;;5.88;;
13171;SDS011;6651;53.200;10.432;2023-11-19T11:13:31;21.58;;;5.53;;
13171;SDS011;6651;53.200;10.432;2023-11-19T11:15:59;21.60;;;5.90;;
13171;SDS011;6651;53.200;10.432;2023-11-19T11:18:25;22.42;;;6.00;;
13171;SDS011;6651;53.200;10.432;2023-11-19T11:21:11;22.73;;;5.68;;
13171;SDS011;6651;53.200;10.432;2023-11-19T11:28:41;23.00;;;6.00;;
13171;SDS011;6651;53.200;10.432;2023-11-19T11:36:19;21.42;;;5.88;;
13171;SDS011;6651;53.200;10.432;2023-11-19T11:38:47;21.92;;;6.00;;
13171;SDS011;6651;53.200;10.432;2023-11-19T11:41:23;22.27;;;6.45;;
13171;SDS011;6651;53.200;10.432;2023-11-19T11:54:09;18.15;;;5.40;;
13171;SDS011;6651;53.200;10.432;2023-11-19T11:56:38;17.70;;;5.32;;
13171;SDS011;6651;53.200;10.432;2023-11-19T11:59:07;16.63;;;4.65;;
13171;SDS011;6651;53.200;10.432;2023-11-19T12:01:34;18.23;;;5.25;;
13171;SDS011;6651;53.200;10.432;2023-11-19T12:04:00;18.20;;;5.25;;
13171;SDS011;6651;53.200;10.432;2023-11-19T12:06:27;19.75;;;6.15;;
13171;SDS011;6651;53.200;10.432;2023-11-19T12:08:59;18.75;;;5.25;;
13171;SDS011;6651;53.200;10.432;2023-11-19T12:11:25;17.55;;;4.97;;
13171;SDS011;6651;53.200;10.432;2023-11-19T12:13:54;18.13;;;4.97;;
13171;SDS011;6651;53.200;10.432;2023-11-19T12:16:21;13.60;;;4.60;;
13171;SDS011;6651;53.200;10.432;2023-11-19T12:18:47;14.38;;;4.70;;
13171;SDS011;6651;53.200;10.432;2023-11-19T12:21:27;17.35;;;4.85;;
13171;SDS011;6651;53.200;10.432;2023-11-19T12:23:54;20.63;;;4.80;;
13171;SDS011;6651;53.200;10.432;2023-11-19T12:26:29;18.77;;;5.32;;
13171;SDS011;6651;53.200;10.432;2023-11-19T12:29:00;18.10;;;4.85;;
13171;SDS011;6651;53.200;10.432;2023-11-19T12:31:26;21.75;;;5.40;;
13171;SDS011;6651;53.200;10.432;2023-11-19T12:33:52;16.75;;;5.28;;
13171;SDS011;6651;53.200;10.432;2023-11-19T12:36:18;18.42;;;5.22;;
13171;SDS011;6651;53.200;10.432;2023-11-19T12:38:44;18.77;;;5.82;;
13171;SDS011;6651;53.200;10.432;2023-11-19T12:41:11;18.77;;;4.63;;
13171;SDS011;6651;53.200;10.432;2023-11-19T12:43:38;15.13;;;5.07;;
13171;SDS011;6651;53.200;10.432;2023-11-19T12:46:23;17.10;;;4.82;;
13171;SDS011;6651;53.200;10.432;2023-11-19T12:48:50;13.45;;;4.18;;
13171;SDS011;6651;53.200;10.432;2023-11-19T12:51:16;18.30;;;5.30;;
13171;SDS011;6651;53.200;10.432;2023-11-19T12:53:49;16.23;;;4.57;;
13171;SDS011;6651;53.200;10.432;2023-11-19T12:56:15;18.10;;;5.20;;
13171;SDS011;6651;53.200;10.432;2023-11-19T12:58:41;18.63;;;5.18;;
13171;SDS011;6651;53.200;10.432;2023-11-19T13:01:08;15.95;;;4.80;;
13171;SDS011;6651;53.200;10.432;2023-11-19T13:03:37;17.83;;;5.03;;
13171;SDS011;6651;53.200;10.432;2023-11-19T13:06:13;17.65;;;5.15;;
13171;SDS011;6651;53.200;10.432;2023-11-19T13:08:41;19.23;;;5.15;;
13171;SDS011;6651;53.200;10.432;2023-11-19T13:11:09;16.00;;;5.40;;
13171;SDS011;6651;53.200;10.432;2023-11-19T13:13:57;17.05;;;5.47;;
13171;SDS011;6651;53.200;10.432;2023-11-19T13:16:22;19.73;;;5.70;;
13171;SDS011;6651;53.200;10.432;2023-11-19T13:18:48;19.77;;;5.70;;
13171;SDS011;6651;53.200;10.432;2023-11-19T13:21:14;20.27;;;5.20;;
13171;SDS011;6651;53.200;10.432;2023-11-19T13:23:40;18.33;;;5.80;;
13171;SDS011;6651;53.200;10.432;2023-11-19T13:26:06;23.40;;;6.40;;
13171;SDS011;6651;53.200;10.432;2023-11-19T13:28:32;20.73;;;5.88;;
13171;SDS011;6651;53.200;10.432;2023-11-19T13:30:58;19.23;;;6.10;;
13171;SDS011;6651;53.200;10.432;2023-11-19T13:33:24;22.75;;;6.32;;
13171;SDS011;6651;53.200;10.432;2023-11-19T13:35:51;20.75;;;5.43;;
13171;SDS011;6651;53.200;10.432;2023-11-19T13:38:18;22.95;;;5.78;;
13171;SDS011;6651;53.200;10.432;2023-11-19T13:40:44;19.08;;;5.30;;
13171;SDS011;6651;53.200;10.432;2023-11-19T13:43:10;21.60;;;5.80;;
13171;SDS011;6651;53.200;10.432;2023-11-19T13:45:36;21.15;;;6.75;;
13171;SDS011;6651;53.200;10.432;2023-11-19T13:48:02;24.90;;;6.47;;
13171;SDS011;6651;53.200;10.432;2023-11-19T13:50:28;24.23;;;6.35;;
13171;SDS011;6651;53.200;10.432;2023-11-19T13:52:54;20.48;;;5.70;;
13171;SDS011;6651;53.200;10.432;2023-11-19T13:55:20;22.42;;;6.07;;
13171;SDS011;6651;53.200;10.432;2023-11-19T13:57:47;26.48;;;6.20;;
13171;SDS011;6651;53.200;10.432;2023-11-19T14:00:13;23.85;;;6.75;;
13171;SDS011;6651;53.200;10.432;2023-11-19T14:02:44;23.15;;;5.95;;
13171;SDS011;6651;53.200;10.432;2023-11-19T14:05:10;22.27;;;5.85;;
13171;SDS011;6651;53.200;10.432;2023-11-19T14:07:36;25.00;;;6.57;;
13171;SDS011;6651;53.200;10.432;2023-11-19T14:10:02;25.13;;;6.70;;
13171;SDS011;6651;53.200;10.432;2023-11-19T14:12:30;20.88;;;6.00;;
13171;SDS011;6651;53.200;10.432;2023-11-19T14:14:57;24.92;;;5.97;;
13171;SDS011;6651;53.200;10.432;2023-11-19T14:17:23;21.88;;;6.13;;
13171;SDS011;6651;53.200;10.432;2023-11-19T14:19:52;22.13;;;6.63;;
13171;SDS011;6651;53.200;10.432;2023-11-19T14:22:18;22.38;;;7.40;;
13171;SDS011;6651;53.200;10.432;2023-11-19T14:24:44;24.95;;;9.35;;
13171;SDS011;6651;53.200;10.432;2023-11-19T14:27:10;20.45;;;6.70;;
13171;SDS011;6651;53.200;10.432;2023-11-19T14:29:36;20.63;;;6.18;;
13171;SDS011;6651;53.200;10.432;2023-11-19T14:32:03;20.35;;;5.88;;
13171;SDS011;6651;53.200;10.432;2023-11-19T14:34:30;19.75;;;5.18;;
13171;SDS011;6651;53.200;10.432;2023-11-19T14:36:56;18.50;;;5.20;;
13171;SDS011;6651;53.200;10.432;2023-11-19T14:39:22;15.43;;;4.72;;
13171;SDS011;6651;53.200;10.432;2023-11-19T14:41:48;17.00;;;4.72;;
13171;SDS011;6651;53.200;10.432;2023-11-19T14:44:15;13.95;;;4.43;;
13171;SDS011;6651;53.200;10.432;2023-11-19T14:46:41;18.02;;;4.50;;
13171;SDS011;6651;53.200;10.432;2023-11-19T14:49:07;16.73;;;4.53;;
13171;SDS011;6651;53.200;10.432;2023-11-19T14:51:37;12.60;;;3.70;;
13171;SDS011;6651;53.200;10.432;2023-11-19T14:54:03;11.98;;;3.88;;
13171;SDS011;6651;53.200;10.432;2023-11-19T14:56:29;11.30;;;3.22;;
13171;SDS011;6651;53.200;10.432;2023-11-19T14:58:55;12.73;;;4.00;;
13171;SDS011;6651;53.200;10.432;2023-11-19T15:01:21;9.95;;;3.45;;